sensor_id;sensor_type;location;lat;lon;timestamp;pressure;altitude;pressure_sealevel;temperature;humidity
66021;BME280;52789;59.980;30.346;2024-02-28T00:01:31;101875.56;;;2.54;100.00
66021;BME280;52789;59.980;30.346;2024-02-28T00:03:57;101895.38;;;2.61;100.00
66021;BME280;52789;59.980;30.346;2024-02-28T00:06:22;101893.59;;;2.62;100.00
66021;BME280;52789;59.980;30.346;2024-02-28T00:08:48;101880.81;;;2.54;100.00
66021;BME280;52789;59.980;30.346;2024-02-28T00:11:16;101885.16;;;2.55;100.00
66021;BME280;52789;59.980;30.346;2024-02-28T00:13:42;101867.25;;;2.46;100.00
66021;BME280;52789;59.980;30.346;2024-02-28T00:16:07;101875.41;;;2.57;100.00
66021;BME280;52789;59.980;30.346;2024-02-28T00:18:33;101880.81;;;2.54;100.00
66021;BME280;52789;59.980;30.346;2024-02-28T00:20:58;101822.97;;;2.23;100.00
66021;BME280;52789;59.980;30.346;2024-02-28T00:23:24;101851.66;;;2.43;100.00
66021;BME280;52789;59.980;30.346;2024-02-28T00:25:51;101869.38;;;2.55;100.00
66021;BME280;52789;59.980;30.346;2024-02-28T00:28:18;101859.13;;;2.51;100.00
66021;BME280;52789;59.980;30.346;2024-02-28T00:30:44;101870.31;;;2.54;100.00
66021;BME280;52789;59.980;30.346;2024-02-28T00:33:10;101866.25;;;2.33;100.00
66021;BME280;52789;59.980;30.346;2024-02-28T00:35:35;101870.59;;;2.16;100.00
66021;BME280;52789;59.980;30.346;2024-02-28T00:38:01;101855.34;;;1.90;100.00
66021;BME280;52789;59.980;30.346;2024-02-28T00:40:27;101850.28;;;1.87;100.00
66021;BME280;52789;59.980;30.346;2024-02-28T00:42:54;101859.97;;;2.02;100.00
66021;BME280;52789;59.980;30.346;2024-02-28T00:45:20;101882.47;;;2.24;100.00
66021;BME280;52789;59.980;30.346;2024-02-28T00:47:46;101872.44;;;2.32;100.00
66021;BME280;52789;59.980;30.346;2024-02-28T00:50:11;101860.66;;;2.39;100.00
66021;BME280;52789;59.980;30.346;2024-02-28T00:52:37;101806.50;;;2.03;100.00
66021;BME280;52789;59.980;30.346;2024-02-28T00:55:03;101851.22;;;2.35;100.00
66021;BME280;52789;59.980;30.346;2024-02-28T00:57:30;101852.94;;;2.36;100.00
66021;BME280;52789;59.980;30.346;2024-02-28T00:59:56;101872.00;;;2.55;100.00
66021;BME280;52789;59.980;30.346;2024-02-28T01:02:22;101863.53;;;2.50;100.00
66021;BME280;52789;59.980;30.346;2024-02-28T01:04:47;101863.28;;;2.39;100.00
66021;BME280;52789;59.980;30.346;2024-02-28T01:07:13;101851.63;;;2.27;100.00
66021;BME280;52789;59.980;30.346;2024-02-28T01:09:38;101870.72;;;2.46;100.00
66021;BME280;52789;59.980;30.346;2024-02-28T01:12:04;101857.16;;;2.38;100.00
66021;BME280;52789;59.980;30.346;2024-02-28T01:14:29;101866.75;;;2.39;100.00
66021;BME280;52789;59.980;30.346;2024-02-28T01:16:55;101850.69;;;2.12;100.00
66021;BME280;52789;59.980;30.346;2024-02-28T01:19:20;101884.25;;;2.07;100.00
66021;BME280;52789;59.980;30.346;2024-02-28T01:21:46;101868.66;;;1.87;100.00
66021;BME280;52789;59.980;30.346;2024-02-28T01:24:12;101875.44;;;1.91;100.00
66021;BME280;52789;59.980;30.346;2024-02-28T01:26:37;101892.75;;;1.95;100.00
66021;BME280;52789;59.980;30.346;2024-02-28T01:29:03;101866.38;;;1.97;100.00
66021;BME280;52789;59.980;30.346;2024-02-28T01:31:30;101879.16;;;2.04;100.00
66021;BME280;52789;59.980;30.346;2024-02-28T01:33:56;101885.53;;;2.16;100.00
66021;BME280;52789;59.980;30.346;2024-02-28T01:36:22;101861.94;;;2.14;100.00
66021;BME280;52789;59.980;30.346;2024-02-28T01:38:47;101864.75;;;2.27;100.00
66021;BME280;52789;59.980;30.346;2024-02-28T01:41:13;101878.63;;;2.46;100.00
66021;BME280;52789;59.980;30.346;2024-02-28T01:43:38;101843.66;;;2.29;100.00
66021;BME280;52789;59.980;30.346;2024-02-28T01:46:20;101858.78;;;2.41;100.00
66021;BME280;52789;59.980;30.346;2024-02-28T01:48:47;101851.44;;;2.30;100.00
66021;BME280;52789;59.980;30.346;2024-02-28T01:51:13;101881.25;;;2.46;100.00
66021;BME280;52789;59.980;30.346;2024-02-28T01:53:39;101873.03;;;2.37;100.00
66021;BME280;52789;59.980;30.346;2024-02-28T01:56:05;101877.94;;;2.43;100.00
66021;BME280;52789;59.980;30.346;2024-02-28T01:58:31;101885.06;;;2.41;100.00
66021;BME280;52789;59.980;30.346;2024-02-28T02:00:58;101879.38;;;2.33;100.00
66021;BME280;52789;59.980;30.346;2024-02-28T02:03:24;101879.38;;;2.33;100.00
66021;BME280;52789;59.980;30.346;2024-02-28T02:05:50;101852.97;;;2.18;100.00
66021;BME280;52789;59.980;30.346;2024-02-28T02:08:15;101872.44;;;2.32;100.00
66021;BME280;52789;59.980;30.346;2024-02-28T02:10:41;101870.78;;;2.29;100.00
66021;BME280;52789;59.980;30.346;2024-02-28T02:13:07;101877.59;;;2.33;100.00
66021;BME280;52789;59.980;30.346;2024-02-28T02:15:33;101879.72;;;2.42;100.00
66021;BME280;52789;59.980;30.346;2024-02-28T02:17:59;101888.38;;;2.44;100.00
66021;BME280;52789;59.980;30.346;2024-02-28T02:20:26;101872.25;;;2.35;100.00
66021;BME280;52789;59.980;30.346;2024-02-28T02:22:55;101864.59;;;2.30;100.00
66021;BME280;52789;59.980;30.346;2024-02-28T02:25:21;101882.31;;;2.27;100.00
66021;BME280;52789;59.980;30.346;2024-02-28T02:27:46;101884.84;;;2.12;100.00
66021;BME280;52789;59.980;30.346;2024-02-28T02:30:12;101894.44;;;1.96;100.00
66021;BME280;52789;59.980;30.346;2024-02-28T02:32:38;101849.59;;;1.66;100.00
66021;BME280;52789;59.980;30.346;2024-02-28T02:35:03;101869.16;;;1.78;100.00
66021;BME280;52789;59.980;30.346;2024-02-28T02:37:29;101883.31;;;1.91;100.00
66021;BME280;52789;59.980;30.346;2024-02-28T02:39:55;101854.75;;;1.85;100.00
66021;BME280;52789;59.980;30.346;2024-02-28T02:42:20;101858.75;;;1.92;100.00
66021;BME280;52789;59.980;30.346;2024-02-28T02:44:46;101885.47;;;2.00;100.00
66021;BME280;52789;59.980;30.346;2024-02-28T02:47:12;101875.44;;;1.91;100.00
66021;BME280;52789;59.980;30.346;2024-02-28T02:49:38;101870.06;;;1.77;100.00
66021;BME280;52789;59.980;30.346;2024-02-28T02:52:03;101879.25;;;1.85;100.00
66021;BME280;52789;59.980;30.346;2024-02-28T02:54:29;101865.59;;;1.79;100.00
66021;BME280;52789;59.980;30.346;2024-02-28T02:56:54;101829.16;;;1.55;100.00
66021;BME280;52789;59.980;30.346;2024-02-28T02:59:20;101870.69;;;1.82;100.00
66021;BME280;52789;59.980;30.346;2024-02-28T03:01:49;101887.66;;;1.92;100.00
66021;BME280;52789;59.980;30.346;2024-02-28T03:04:15;101852.06;;;1.86;100.00
66021;BME280;52789;59.980;30.346;2024-02-28T03:06:40;101862.59;;;2.02;100.00
66021;BME280;52789;59.980;30.346;2024-02-28T03:09:06;101879.16;;;2.20;100.00
66021;BME280;52789;59.980;30.346;2024-02-28T03:11:33;101882.47;;;2.24;100.00
66021;BME280;52789;59.980;30.346;2024-02-28T03:14:01;101879.09;;;2.22;100.00
66021;BME280;52789;59.980;30.346;2024-02-28T03:16:26;101859.31;;;2.14;100.00
66021;BME280;52789;59.980;30.346;2024-02-28T03:18:53;101882.47;;;2.24;100.00
66021;BME280;52789;59.980;30.346;2024-02-28T03:21:19;101878.25;;;2.21;100.00
66021;BME280;52789;59.980;30.346;2024-02-28T03:23:46;101866.84;;;2.05;100.00
66021;BME280;52789;59.980;30.346;2024-02-28T03:26:11;101886.38;;;2.16;100.00
66021;BME280;52789;59.980;30.346;2024-02-28T03:28:37;101890.44;;;2.22;100.00
66021;BME280;52789;59.980;30.346;2024-02-28T03:31:03;101892.16;;;2.23;100.00
66021;BME280;52789;59.980;30.346;2024-02-28T03:33:28;101871.00;;;2.09;100.00
66021;BME280;52789;59.980;30.346;2024-02-28T03:35:57;101897.06;;;2.29;100.00
66021;BME280;52789;59.980;30.346;2024-02-28T03:38:22;101835.28;;;1.89;100.00
66021;BME280;52789;59.980;30.346;2024-02-28T03:40:48;101877.72;;;2.14;100.00
66021;BME280;52789;59.980;30.346;2024-02-28T03:43:13;101877.66;;;1.99;100.00
66021;BME280;52789;59.980;30.346;2024-02-28T03:45:39;101853.69;;;1.72;100.00
66021;BME280;52789;59.980;30.346;2024-02-28T03:48:05;101899.53;;;1.99;100.00
66021;BME280;52789;59.980;30.346;2024-02-28T03:50:30;101913.69;;;1.97;100.00
66021;BME280;52789;59.980;30.346;2024-02-28T03:52:56;101908.34;;;1.98;100.00
66021;BME280;52789;59.980;30.346;2024-02-28T03:55:21;101906.97;;;1.91;100.00
66021;BME280;52789;59.980;30.346;2024-02-28T03:57:48;101909.28;;;1.97;100.00
66021;BME280;52789;59.980;30.346;2024-02-28T04:00:14;101902.41;;;1.95;100.00
66021;BME280;52789;59.980;30.346;2024-02-28T04:02:40;101875.31;;;1.77;100.00
66021;BME280;52789;59.980;30.346;2024-02-28T04:05:06;101822.69;;;1.45;100.00
66021;BME280;52789;59.980;30.346;2024-02-28T04:07:31;101775.28;;;1.14;100.00
66021;BME280;52789;59.980;30.346;2024-02-28T04:09:57;101914.06;;;2.06;100.00
66021;BME280;52789;59.980;30.346;2024-02-28T04:12:22;101914.50;;;2.14;100.00
66021;BME280;52789;59.980;30.346;2024-02-28T04:14:48;101920.47;;;2.18;100.00
66021;BME280;52789;59.980;30.346;2024-02-28T04:17:13;101930.88;;;2.20;100.00
66021;BME280;52789;59.980;30.346;2024-02-28T04:19:39;101936.91;;;2.22;100.00
66021;BME280;52789;59.980;30.346;2024-02-28T04:22:05;101931.06;;;2.16;100.00
66021;BME280;52789;59.980;30.346;2024-02-28T04:24:31;101919.63;;;2.00;100.00
66021;BME280;52789;59.980;30.346;2024-02-28T04:26:57;101907.44;;;1.82;100.00
66021;BME280;52789;59.980;30.346;2024-02-28T04:29:25;101942.91;;;1.91;100.00
66021;BME280;52789;59.980;30.346;2024-02-28T04:31:51;101898.03;;;1.61;100.00
66021;BME280;52789;59.980;30.346;2024-02-28T04:34:16;101939.59;;;1.87;100.00
66021;BME280;52789;59.980;30.346;2024-02-28T04:36:42;101944.19;;;1.99;100.00
66021;BME280;52789;59.980;30.346;2024-02-28T04:39:07;101918.41;;;1.90;100.00
66021;BME280;52789;59.980;30.346;2024-02-28T04:41:34;101926.66;;;2.00;100.00
66021;BME280;52789;59.980;30.346;2024-02-28T04:43:59;101927.22;;;2.06;100.00
66021;BME280;52789;59.980;30.346;2024-02-28T04:46:25;101945.19;;;2.14;100.00
66021;BME280;52789;59.980;30.346;2024-02-28T04:48:50;101934.84;;;2.11;100.00
66021;BME280;52789;59.980;30.346;2024-02-28T04:51:16;101939.41;;;2.07;100.00
66021;BME280;52789;59.980;30.346;2024-02-28T04:53:43;101889.38;;;1.76;100.00
66021;BME280;52789;59.980;30.346;2024-02-28T04:56:09;101950.63;;;2.11;100.00
66021;BME280;52789;59.980;30.346;2024-02-28T04:58:36;101944.34;;;2.13;100.00
66021;BME280;52789;59.980;30.346;2024-02-28T05:01:01;101927.28;;;2.05;100.00
66021;BME280;52789;59.980;30.346;2024-02-28T05:03:27;101918.56;;;2.04;100.00
66021;BME280;52789;59.980;30.346;2024-02-28T05:05:53;101915.22;;;2.01;100.00
66021;BME280;52789;59.980;30.346;2024-02-28T05:08:20;101915.13;;;2.02;100.00
66021;BME280;52789;59.980;30.346;2024-02-28T05:10:46;101933.84;;;2.13;100.00
66021;BME280;52789;59.980;30.346;2024-02-28T05:13:12;101928.06;;;2.07;100.00
66021;BME280;52789;59.980;30.346;2024-02-28T05:15:38;101838.28;;;1.48;100.00
66021;BME280;52789;59.980;30.346;2024-02-28T05:18:03;101942.03;;;2.07;100.00
66021;BME280;52789;59.980;30.346;2024-02-28T05:20:32;101927.50;;;2.00;100.00
66021;BME280;52789;59.980;30.346;2024-02-28T05:22:58;101941.50;;;2.01;100.00
66021;BME280;52789;59.980;30.346;2024-02-28T05:25:24;101925.06;;;1.80;100.00
66021;BME280;52789;59.980;30.346;2024-02-28T05:27:55;101919.81;;;1.63;100.00
66021;BME280;52789;59.980;30.346;2024-02-28T05:30:20;101944.84;;;1.87;100.00
66021;BME280;52789;59.980;30.346;2024-02-28T05:32:46;101938.81;;;1.85;100.00
66021;BME280;52789;59.980;30.346;2024-02-28T05:35:11;101949.44;;;1.99;100.00
66021;BME280;52789;59.980;30.346;2024-02-28T05:37:37;101938.00;;;2.00;100.00
66021;BME280;52789;59.980;30.346;2024-02-28T05:40:03;101927.91;;;1.93;100.00
66021;BME280;52789;59.980;30.346;2024-02-28T05:42:30;101927.22;;;1.89;100.00
66021;BME280;52789;59.980;30.346;2024-02-28T05:44:56;101922.91;;;1.88;100.00
66021;BME280;52789;59.980;30.346;2024-02-28T05:47:22;101909.53;;;1.93;100.00
66021;BME280;52789;59.980;30.346;2024-02-28T05:49:48;101928.16;;;2.05;100.00
66021;BME280;52789;59.980;30.346;2024-02-28T05:52:13;101918.00;;;1.98;100.00
66021;BME280;52789;59.980;30.346;2024-02-28T05:54:40;101808.88;;;1.24;100.00
66021;BME280;52789;59.980;30.346;2024-02-28T05:57:05;101921.56;;;1.97;100.00
66021;BME280;52789;59.980;30.346;2024-02-28T05:59:31;101925.13;;;1.96;100.00
66021;BME280;52789;59.980;30.346;2024-02-28T06:01:57;101938.00;;;2.00;100.00
66021;BME280;52789;59.980;30.346;2024-02-28T06:04:22;101930.22;;;1.99;100.00
66021;BME280;52789;59.980;30.346;2024-02-28T06:06:48;101944.19;;;2.16;100.00
66021;BME280;52789;59.980;30.346;2024-02-28T06:09:14;101932.31;;;2.09;100.00
66021;BME280;52789;59.980;30.346;2024-02-28T06:11:40;101927.06;;;2.09;100.00
66021;BME280;52789;59.980;30.346;2024-02-28T06:14:05;101949.81;;;2.26;100.00
66021;BME280;52789;59.980;30.346;2024-02-28T06:16:31;101931.28;;;2.12;100.00
66021;BME280;52789;59.980;30.346;2024-02-28T06:18:57;101931.13;;;2.15;100.00
66021;BME280;52789;59.980;30.346;2024-02-28T06:21:22;101944.88;;;2.20;100.00
66021;BME280;52789;59.980;30.346;2024-02-28T06:23:49;101928.28;;;2.02;100.00
66021;BME280;52789;59.980;30.346;2024-02-28T06:26:14;101925.81;;;1.99;100.00
66021;BME280;52789;59.980;30.346;2024-02-28T06:28:45;101932.56;;;1.88;100.00
66021;BME280;52789;59.980;30.346;2024-02-28T06:31:15;101949.16;;;1.88;100.00
66021;BME280;52789;59.980;30.346;2024-02-28T06:33:44;101953.94;;;1.97;100.00
66021;BME280;52789;59.980;30.346;2024-02-28T06:36:10;101937.41;;;1.95;100.00
66021;BME280;52789;59.980;30.346;2024-02-28T06:38:35;101951.16;;;2.17;100.00
66021;BME280;52789;59.980;30.346;2024-02-28T06:41:03;101900.63;;;1.95;100.00
66021;BME280;52789;59.980;30.346;2024-02-28T06:43:29;101895.38;;;1.95;100.00
66021;BME280;52789;59.980;30.346;2024-02-28T06:45:54;101934.44;;;2.18;100.00
66021;BME280;52789;59.980;30.346;2024-02-28T06:48:20;101959.09;;;2.33;100.00
66021;BME280;52789;59.980;30.346;2024-02-28T06:50:46;101955.44;;;2.36;100.00
66021;BME280;52789;59.980;30.346;2024-02-28T06:53:11;101924.19;;;2.14;100.00
66021;BME280;52789;59.980;30.346;2024-02-28T06:55:37;101947.94;;;2.28;100.00
66021;BME280;52789;59.980;30.346;2024-02-28T06:58:03;101937.94;;;2.19;100.00
66021;BME280;52789;59.980;30.346;2024-02-28T07:00:28;101952.91;;;2.34;100.00
66021;BME280;52789;59.980;30.346;2024-02-28T07:02:54;101956.38;;;2.35;100.00
66021;BME280;52789;59.980;30.346;2024-02-28T07:05:19;101933.50;;;2.20;100.00
66021;BME280;52789;59.980;30.346;2024-02-28T07:07:45;101958.84;;;2.38;100.00
66021;BME280;52789;59.980;30.346;2024-02-28T07:10:11;101955.63;;;2.33;100.00
66021;BME280;52789;59.980;30.346;2024-02-28T07:12:37;101958.47;;;2.28;100.00
66021;BME280;52789;59.980;30.346;2024-02-28T07:15:02;101933.50;;;2.20;100.00
66021;BME280;52789;59.980;30.346;2024-02-28T07:17:29;101939.91;;;2.31;100.00
66021;BME280;52789;59.980;30.346;2024-02-28T07:19:55;101954.53;;;2.37;100.00
66021;BME280;52789;59.980;30.346;2024-02-28T07:22:21;101954.28;;;2.41;100.00
66021;BME280;52789;59.980;30.346;2024-02-28T07:24:46;101949.00;;;2.41;100.00
66021;BME280;52789;59.980;30.346;2024-02-28T07:27:13;101954.53;;;2.37;100.00
66021;BME280;52789;59.980;30.346;2024-02-28T07:29:39;101961.22;;;2.42;100.00
66021;BME280;52789;59.980;30.346;2024-02-28T07:32:04;101920.09;;;2.08;100.00
66021;BME280;52789;59.980;30.346;2024-02-28T07:34:30;101949.50;;;2.32;100.00
66021;BME280;52789;59.980;30.346;2024-02-28T07:36:56;101967.16;;;2.46;100.00
66021;BME280;52789;59.980;30.346;2024-02-28T07:39:22;101959.63;;;2.40;100.00
66021;BME280;52789;59.980;30.346;2024-02-28T07:41:49;101965.91;;;2.53;100.00
66021;BME280;52789;59.980;30.346;2024-02-28T07:44:16;101960.38;;;2.42;100.00
66021;BME280;52789;59.980;30.346;2024-02-28T07:46:42;101953.25;;;2.44;100.00
66021;BME280;52789;59.980;30.346;2024-02-28T07:49:08;101926.00;;;2.29;100.00
66021;BME280;52789;59.980;30.346;2024-02-28T07:51:33;101958.28;;;2.48;100.00
66021;BME280;52789;59.980;30.346;2024-02-28T07:53:59;101921.28;;;2.36;100.00
66021;BME280;52789;59.980;30.346;2024-02-28T07:56:30;101950.81;;;2.57;100.00
66021;BME280;52789;59.980;30.346;2024-02-28T07:58:56;101946.31;;;2.59;100.00
66021;BME280;52789;59.980;30.346;2024-02-28T08:01:22;101934.81;;;2.61;100.00
66021;BME280;52789;59.980;30.346;2024-02-28T08:03:48;101895.25;;;2.47;100.00
66021;BME280;52789;59.980;30.346;2024-02-28T08:06:13;101928.78;;;2.75;100.00
66021;BME280;52789;59.980;30.346;2024-02-28T08:08:39;101906.97;;;2.73;100.00
66021;BME280;52789;59.980;30.346;2024-02-28T08:11:04;101934.50;;;2.99;100.00
66021;BME280;52789;59.980;30.346;2024-02-28T08:13:30;101931.28;;;2.94;100.00
66021;BME280;52789;59.980;30.346;2024-02-28T08:15:58;101925.72;;;2.83;100.00
66021;BME280;52789;59.980;30.346;2024-02-28T08:18:23;101832.19;;;2.30;100.00
66021;BME280;52789;59.980;30.346;2024-02-28T08:20:53;101926.50;;;2.85;100.00
66021;BME280;52789;59.980;30.346;2024-02-28T08:23:23;101888.81;;;2.53;100.00
66021;BME280;52789;59.980;30.346;2024-02-28T08:25:48;101940.59;;;2.84;100.00
66021;BME280;52789;59.980;30.346;2024-02-28T08:28:16;101896.22;;;2.62;100.00
66021;BME280;52789;59.980;30.346;2024-02-28T08:30:41;101927.34;;;2.85;100.00
66021;BME280;52789;59.980;30.346;2024-02-28T08:33:12;101902.41;;;2.76;100.00
66021;BME280;52789;59.980;30.346;2024-02-28T08:35:38;101918.78;;;2.82;100.00
66021;BME280;52789;59.980;30.346;2024-02-28T08:38:04;101943.56;;;2.93;100.00
66021;BME280;52789;59.980;30.346;2024-02-28T08:40:30;101926.00;;;2.94;100.00
66021;BME280;52789;59.980;30.346;2024-02-28T08:42:56;101933.13;;;3.07;100.00
66021;BME280;52789;59.980;30.346;2024-02-28T08:45:23;101880.41;;;2.77;100.00
66021;BME280;52789;59.980;30.346;2024-02-28T08:47:48;101878.72;;;2.76;100.00
66021;BME280;52789;59.980;30.346;2024-02-28T08:50:14;101917.50;;;3.04;100.00
66021;BME280;52789;59.980;30.346;2024-02-28T08:52:39;101920.53;;;3.13;100.00
66021;BME280;52789;59.980;30.346;2024-02-28T08:55:05;101941.19;;;3.20;100.00
66021;BME280;52789;59.980;30.346;2024-02-28T08:57:31;101913.09;;;3.05;100.00
66021;BME280;52789;59.980;30.346;2024-02-28T08:59:57;101917.81;;;3.14;100.00
66021;BME280;52789;59.980;30.346;2024-02-28T09:02:22;101930.34;;;3.40;100.00
66021;BME280;52789;59.980;30.346;2024-02-28T09:04:48;101923.56;;;3.36;100.00
66021;BME280;52789;59.980;30.346;2024-02-28T09:07:18;101938.03;;;3.29;100.00
66021;BME280;52789;59.980;30.346;2024-02-28T09:09:45;101912.31;;;3.03;100.00
66021;BME280;52789;59.980;30.346;2024-02-28T09:12:11;101924.97;;;3.12;100.00
66021;BME280;52789;59.980;30.346;2024-02-28T09:14:37;101908.66;;;3.21;100.00
66021;BME280;52789;59.980;30.346;2024-02-28T09:17:04;101913.03;;;3.36;100.00
66021;BME280;52789;59.980;30.346;2024-02-28T09:19:33;101939.25;;;3.54;100.00
66021;BME280;52789;59.980;30.346;2024-02-28T09:21:58;101883.69;;;3.13;100.00
66021;BME280;52789;59.980;30.346;2024-02-28T09:24:25;101938.50;;;3.52;100.00
66021;BME280;52789;59.980;30.346;2024-02-28T09:26:51;101934.75;;;3.56;100.00
66021;BME280;52789;59.980;30.346;2024-02-28T09:29:18;101911.41;;;3.50;100.00
66021;BME280;52789;59.980;30.346;2024-02-28T09:31:44;101930.81;;;3.63;100.00
66021;BME280;52789;59.980;30.346;2024-02-28T09:34:09;101927.63;;;3.58;100.00
66021;BME280;52789;59.980;30.346;2024-02-28T09:36:42;101935.91;;;3.66;100.00
66021;BME280;52789;59.980;30.346;2024-02-28T09:39:08;101939.47;;;3.65;100.00
66021;BME280;52789;59.980;30.346;2024-02-28T09:41:33;101924.41;;;3.53;100.00
66021;BME280;52789;59.980;30.346;2024-02-28T09:44:00;101942.38;;;3.60;100.00
66021;BME280;52789;59.980;30.346;2024-02-28T09:46:25;101943.06;;;3.64;100.00
66021;BME280;52789;59.980;30.346;2024-02-28T09:48:52;101941.91;;;3.54;100.00
66021;BME280;52789;59.980;30.346;2024-02-28T09:51:21;101915.50;;;3.39;100.00
66021;BME280;52789;59.980;30.346;2024-02-28T09:53:47;101934.59;;;3.43;100.00
66021;BME280;52789;59.980;30.346;2024-02-28T09:56:13;101947.66;;;3.45;100.00
66021;BME280;52789;59.980;30.346;2024-02-28T09:58:40;101940.94;;;3.25;100.00
66021;BME280;52789;59.980;30.346;2024-02-28T10:01:08;101921.56;;;3.10;100.00
66021;BME280;52789;59.980;30.346;2024-02-28T10:03:37;101951.59;;;3.37;100.00
66021;BME280;52789;59.980;30.346;2024-02-28T10:06:07;101949.06;;;3.36;100.00
66021;BME280;52789;59.980;30.346;2024-02-28T10:08:33;101940.56;;;3.31;100.00
66021;BME280;52789;59.980;30.346;2024-02-28T10:11:00;101912.66;;;3.13;100.00
66021;BME280;52789;59.980;30.346;2024-02-28T10:13:26;101933.63;;;3.30;100.00
66021;BME280;52789;59.980;30.346;2024-02-28T10:15:52;101934.19;;;3.35;100.00
66021;BME280;52789;59.980;30.346;2024-02-28T10:18:17;101942.16;;;3.49;100.00
66021;BME280;52789;59.980;30.346;2024-02-28T10:20:43;101923.13;;;3.44;100.00
66021;BME280;52789;59.980;30.346;2024-02-28T10:23:08;101810.31;;;2.76;100.00
66021;BME280;52789;59.980;30.346;2024-02-28T10:25:47;101933.06;;;3.55;100.00
66021;BME280;52789;59.980;30.346;2024-02-28T10:28:16;101924.66;;;3.48;100.00
66021;BME280;52789;59.980;30.346;2024-02-28T10:30:41;101934.25;;;3.49;100.00
66021;BME280;52789;59.980;30.346;2024-02-28T10:33:11;101937.56;;;3.53;100.00
66021;BME280;52789;59.980;30.346;2024-02-28T10:35:38;101920.44;;;3.30;100.00
66021;BME280;52789;59.980;30.346;2024-02-28T10:38:05;101935.75;;;3.23;100.00
66021;BME280;52789;59.980;30.346;2024-02-28T10:40:31;101935.84;;;3.22;100.00
66021;BME280;52789;59.980;30.346;2024-02-28T10:42:57;101926.28;;;3.35;100.00
66021;BME280;52789;59.980;30.346;2024-02-28T10:45:24;101905.69;;;3.27;100.00
66021;BME280;52789;59.980;30.346;2024-02-28T10:47:54;101914.91;;;3.34;100.00
66021;BME280;52789;59.980;30.346;2024-02-28T10:50:28;101913.63;;;3.41;100.00
66021;BME280;52789;59.980;30.346;2024-02-28T10:52:54;101920.84;;;3.38;100.00
66021;BME280;52789;59.980;30.346;2024-02-28T10:55:27;101909.28;;;3.40;100.00
66021;BME280;52789;59.980;30.346;2024-02-28T10:58:16;101917.25;;;3.55;100.00
66021;BME280;52789;59.980;30.346;2024-02-28T11:00:44;101907.75;;;3.52;100.00
66021;BME280;52789;59.980;30.346;2024-02-28T11:03:11;101906.53;;;3.58;100.00
66021;BME280;52789;59.980;30.346;2024-02-28T11:05:40;101922.81;;;3.64;100.00
66021;BME280;52789;59.980;30.346;2024-02-28T11:08:10;101925.56;;;3.63;100.00
66021;BME280;52789;59.980;30.346;2024-02-28T11:10:43;101936.09;;;3.63;100.00
66021;BME280;52789;59.980;30.346;2024-02-28T11:13:21;101931.75;;;3.62;100.00
66021;BME280;52789;59.980;30.346;2024-02-28T11:15:47;101902.81;;;3.46;100.00
66021;BME280;52789;59.980;30.346;2024-02-28T11:18:12;101918.94;;;3.56;100.00
66021;BME280;52789;59.980;30.346;2024-02-28T11:20:38;101906.91;;;3.52;100.00
66021;BME280;52789;59.980;30.346;2024-02-28T11:23:07;101928.56;;;3.71;100.00
66021;BME280;52789;59.980;30.346;2024-02-28T11:25:35;101929.69;;;3.67;100.00
66021;BME280;52789;59.980;30.346;2024-02-28T11:28:01;101932.34;;;3.67;100.00
66021;BME280;52789;59.980;30.346;2024-02-28T11:30:27;101873.16;;;3.28;100.00
66021;BME280;52789;59.980;30.346;2024-02-28T11:32:53;101931.66;;;3.63;100.00
66021;BME280;52789;59.980;30.346;2024-02-28T11:35:20;101905.72;;;3.41;100.00
66021;BME280;52789;59.980;30.346;2024-02-28T11:37:46;101905.38;;;3.48;100.00
66021;BME280;52789;59.980;30.346;2024-02-28T11:40:13;101905.50;;;3.60;100.00
66021;BME280;52789;59.980;30.346;2024-02-28T11:42:38;101919.91;;;3.69;100.00
66021;BME280;52789;59.980;30.346;2024-02-28T11:45:05;101923.31;;;3.71;100.00
66021;BME280;52789;59.980;30.346;2024-02-28T11:47:32;101902.78;;;3.62;100.00
66021;BME280;52789;59.980;30.346;2024-02-28T11:49:59;101922.78;;;3.80;100.00
66021;BME280;52789;59.980;30.346;2024-02-28T11:52:36;101885.47;;;3.58;100.00
66021;BME280;52789;59.980;30.346;2024-02-28T11:55:01;101926.94;;;3.84;100.00
66021;BME280;52789;59.980;30.346;2024-02-28T11:57:29;101924.47;;;3.81;100.00
66021;BME280;52789;59.980;30.346;2024-02-28T12:00:06;101911.34;;;3.65;100.00
66021;BME280;52789;59.980;30.346;2024-02-28T12:02:32;101907.38;;;3.58;100.00
66021;BME280;52789;59.980;30.346;2024-02-28T12:05:04;101912.06;;;3.53;100.00
66021;BME280;52789;59.980;30.346;2024-02-28T12:07:30;101934.38;;;3.62;100.00
66021;BME280;52789;59.980;30.346;2024-02-28T12:09:57;101915.94;;;3.48;100.00
66021;BME280;52789;59.980;30.346;2024-02-28T12:12:23;101906.91;;;3.52;100.00
66021;BME280;52789;59.980;30.346;2024-02-28T12:14:48;101925.56;;;3.63;100.00
66021;BME280;52789;59.980;30.346;2024-02-28T12:17:14;101925.06;;;3.56;100.00
66021;BME280;52789;59.980;30.346;2024-02-28T12:19:41;101870.78;;;3.24;100.00
66021;BME280;52789;59.980;30.346;2024-02-28T12:22:07;101909.81;;;3.47;100.00
66021;BME280;52789;59.980;30.346;2024-02-28T12:24:33;101901.38;;;3.40;100.00
66021;BME280;52789;59.980;30.346;2024-02-28T12:26:58;101914.81;;;3.52;100.00
66021;BME280;52789;59.980;30.346;2024-02-28T12:29:27;101858.22;;;3.13;100.00
66021;BME280;52789;59.980;30.346;2024-02-28T12:31:53;101915.22;;;3.44;100.00
66021;BME280;52789;59.980;30.346;2024-02-28T12:34:18;101904.03;;;3.40;100.00
66021;BME280;52789;59.980;30.346;2024-02-28T12:36:44;101921.84;;;3.51;100.00